sensor_id;sensor_type;location;lat;lon;timestamp;temperature;humidity
49319;DHT22;35818;44.498;0.166;2022-09-03T00:00:08;19.20;90.70
49319;DHT22;35818;44.498;0.166;2022-09-03T00:05:19;19.30;90.70
49319;DHT22;35818;44.498;0.166;2022-09-03T00:10:42;19.30;90.60
49319;DHT22;35818;44.498;0.166;2022-09-03T00:13:12;19.40;90.50
49319;DHT22;35818;44.498;0.166;2022-09-03T00:15:38;19.50;90.40
49319;DHT22;35818;44.498;0.166;2022-09-03T00:18:05;19.50;90.30
49319;DHT22;35818;44.498;0.166;2022-09-03T00:23:02;19.60;90.30
49319;DHT22;35818;44.498;0.166;2022-09-03T00:25:39;19.60;90.20
49319;DHT22;35818;44.498;0.166;2022-09-03T00:28:12;19.60;90.30
49319;DHT22;35818;44.498;0.166;2022-09-03T00:30:39;19.50;90.40
49319;DHT22;35818;44.498;0.166;2022-09-03T00:33:06;19.50;90.50
49319;DHT22;35818;44.498;0.166;2022-09-03T00:35:49;19.50;90.50
49319;DHT22;35818;44.498;0.166;2022-09-03T00:38:15;19.50;90.60
49319;DHT22;35818;44.498;0.166;2022-09-03T00:40:44;19.50;90.60
49319;DHT22;35818;44.498;0.166;2022-09-03T00:43:17;19.50;90.60
49319;DHT22;35818;44.498;0.166;2022-09-03T00:48:33;19.50;90.60
49319;DHT22;35818;44.498;0.166;2022-09-03T00:51:04;19.50;90.60
49319;DHT22;35818;44.498;0.166;2022-09-03T00:56:07;19.40;90.80
49319;DHT22;35818;44.498;0.166;2022-09-03T00:58:39;19.40;91.00
49319;DHT22;35818;44.498;0.166;2022-09-03T01:01:14;19.40;91.20
49319;DHT22;35818;44.498;0.166;2022-09-03T01:03:49;19.40;91.40
49319;DHT22;35818;44.498;0.166;2022-09-03T01:06:23;19.30;91.50
49319;DHT22;35818;44.498;0.166;2022-09-03T01:09:03;19.30;91.50
49319;DHT22;35818;44.498;0.166;2022-09-03T01:17:08;19.20;91.80
49319;DHT22;35818;44.498;0.166;2022-09-03T01:32:43;19.00;92.80
49319;DHT22;35818;44.498;0.166;2022-09-03T01:35:18;18.90;92.80
49319;DHT22;35818;44.498;0.166;2022-09-03T01:40:22;18.70;93.30
49319;DHT22;35818;44.498;0.166;2022-09-03T01:48:20;18.60;94.20
49319;DHT22;35818;44.498;0.166;2022-09-03T01:50:56;18.50;94.40
49319;DHT22;35818;44.498;0.166;2022-09-03T01:53:44;18.40;94.50
49319;DHT22;35818;44.498;0.166;2022-09-03T01:56:18;18.40;94.60
49319;DHT22;35818;44.498;0.166;2022-09-03T01:58:51;18.40;94.70
49319;DHT22;35818;44.498;0.166;2022-09-03T02:01:26;18.30;94.80
49319;DHT22;35818;44.498;0.166;2022-09-03T02:03:53;18.30;95.10
49319;DHT22;35818;44.498;0.166;2022-09-03T02:06:21;18.20;95.30
49319;DHT22;35818;44.498;0.166;2022-09-03T02:08:46;18.20;95.40
49319;DHT22;35818;44.498;0.166;2022-09-03T02:11:12;18.20;95.70
49319;DHT22;35818;44.498;0.166;2022-09-03T02:13:38;18.10;95.80
49319;DHT22;35818;44.498;0.166;2022-09-03T02:18:40;18.00;96.20
49319;DHT22;35818;44.498;0.166;2022-09-03T02:21:06;18.00;96.40
49319;DHT22;35818;44.498;0.166;2022-09-03T02:23:31;18.00;96.60
49319;DHT22;35818;44.498;0.166;2022-09-03T02:25:59;18.00;96.70
49319;DHT22;35818;44.498;0.166;2022-09-03T02:28:26;17.90;96.90
49319;DHT22;35818;44.498;0.166;2022-09-03T02:30:52;17.90;97.30
49319;DHT22;35818;44.498;0.166;2022-09-03T02:33:18;17.90;97.50
49319;DHT22;35818;44.498;0.166;2022-09-03T02:35:44;17.80;97.80
49319;DHT22;35818;44.498;0.166;2022-09-03T02:38:11;17.80;97.80
49319;DHT22;35818;44.498;0.166;2022-09-03T02:40:37;17.80;98.10
49319;DHT22;35818;44.498;0.166;2022-09-03T02:43:13;17.70;98.10
49319;DHT22;35818;44.498;0.166;2022-09-03T02:45:42;17.70;98.40
49319;DHT22;35818;44.498;0.166;2022-09-03T02:48:10;17.70;98.70
49319;DHT22;35818;44.498;0.166;2022-09-03T02:50:39;17.60;99.00
49319;DHT22;35818;44.498;0.166;2022-09-03T02:53:05;17.60;99.10
49319;DHT22;35818;44.498;0.166;2022-09-03T02:55:30;17.60;99.40
49319;DHT22;35818;44.498;0.166;2022-09-03T02:57:56;17.60;99.40
49319;DHT22;35818;44.498;0.166;2022-09-03T03:00:21;17.60;99.50
49319;DHT22;35818;44.498;0.166;2022-09-03T03:02:47;17.60;99.60
49319;DHT22;35818;44.498;0.166;2022-09-03T03:05:14;17.60;99.70
49319;DHT22;35818;44.498;0.166;2022-09-03T03:07:42;17.60;99.90
49319;DHT22;35818;44.498;0.166;2022-09-03T03:10:08;17.60;99.80
49319;DHT22;35818;44.498;0.166;2022-09-03T03:12:34;17.60;99.80
49319;DHT22;35818;44.498;0.166;2022-09-03T03:14:59;17.50;99.90
49319;DHT22;35818;44.498;0.166;2022-09-03T03:17:25;17.50;99.80
49319;DHT22;35818;44.498;0.166;2022-09-03T03:19:50;17.50;99.90
49319;DHT22;35818;44.498;0.166;2022-09-03T03:22:19;17.50;99.90
49319;DHT22;35818;44.498;0.166;2022-09-03T03:24:44;17.50;99.90
49319;DHT22;35818;44.498;0.166;2022-09-03T03:27:10;17.50;99.90
49319;DHT22;35818;44.498;0.166;2022-09-03T03:29:37;17.50;99.90
49319;DHT22;35818;44.498;0.166;2022-09-03T03:32:03;17.50;99.90
49319;DHT22;35818;44.498;0.166;2022-09-03T03:34:29;17.50;99.90
49319;DHT22;35818;44.498;0.166;2022-09-03T03:36:54;17.50;99.90
49319;DHT22;35818;44.498;0.166;2022-09-03T03:39:20;17.50;99.90
49319;DHT22;35818;44.498;0.166;2022-09-03T03:41:46;17.50;99.90
49319;DHT22;35818;44.498;0.166;2022-09-03T03:44:11;17.50;99.90
49319;DHT22;35818;44.498;0.166;2022-09-03T03:46:38;17.40;99.90
49319;DHT22;35818;44.498;0.166;2022-09-03T03:49:04;17.40;99.90
49319;DHT22;35818;44.498;0.166;2022-09-03T03:51:31;17.40;99.90
49319;DHT22;35818;44.498;0.166;2022-09-03T03:53:57;17.40;99.90
49319;DHT22;35818;44.498;0.166;2022-09-03T03:56:23;17.40;99.90
49319;DHT22;35818;44.498;0.166;2022-09-03T03:58:50;17.40;99.90
49319;DHT22;35818;44.498;0.166;2022-09-03T04:01:17;17.40;99.90
49319;DHT22;35818;44.498;0.166;2022-09-03T04:03:43;17.40;99.90
49319;DHT22;35818;44.498;0.166;2022-09-03T04:06:09;17.40;99.90
49319;DHT22;35818;44.498;0.166;2022-09-03T04:08:36;17.40;99.90
49319;DHT22;35818;44.498;0.166;2022-09-03T04:11:02;17.40;99.90
49319;DHT22;35818;44.498;0.166;2022-09-03T04:13:29;17.40;99.90
49319;DHT22;35818;44.498;0.166;2022-09-03T04:16:01;17.40;99.90
49319;DHT22;35818;44.498;0.166;2022-09-03T04:18:27;17.30;99.90
49319;DHT22;35818;44.498;0.166;2022-09-03T04:20:57;17.30;99.90
49319;DHT22;35818;44.498;0.166;2022-09-03T04:23:23;17.30;99.90
49319;DHT22;35818;44.498;0.166;2022-09-03T04:25:52;17.30;99.90
49319;DHT22;35818;44.498;0.166;2022-09-03T04:28:18;17.30;99.90
49319;DHT22;35818;44.498;0.166;2022-09-03T04:30:43;17.30;99.90
49319;DHT22;35818;44.498;0.166;2022-09-03T04:33:09;17.30;99.90
49319;DHT22;35818;44.498;0.166;2022-09-03T04:35:34;17.20;99.90
49319;DHT22;35818;44.498;0.166;2022-09-03T04:38:00;17.20;99.90
49319;DHT22;35818;44.498;0.166;2022-09-03T04:40:28;17.20;99.90
49319;DHT22;35818;44.498;0.166;2022-09-03T04:42:57;17.20;99.90
49319;DHT22;35818;44.498;0.166;2022-09-03T04:45:26;17.20;99.90
49319;DHT22;35818;44.498;0.166;2022-09-03T04:48:01;17.20;99.90
49319;DHT22;35818;44.498;0.166;2022-09-03T04:50:27;17.20;99.90
49319;DHT22;35818;44.498;0.166;2022-09-03T04:52:53;17.20;99.90
49319;DHT22;35818;44.498;0.166;2022-09-03T04:55:21;17.20;99.90
49319;DHT22;35818;44.498;0.166;2022-09-03T04:57:46;17.20;99.90
49319;DHT22;35818;44.498;0.166;2022-09-03T05:00:12;17.20;99.90
49319;DHT22;35818;44.498;0.166;2022-09-03T05:02:38;17.10;99.90
49319;DHT22;35818;44.498;0.166;2022-09-03T05:05:03;17.10;99.90
49319;DHT22;35818;44.498;0.166;2022-09-03T05:07:29;17.10;99.90
49319;DHT22;35818;44.498;0.166;2022-09-03T05:10:09;17.10;99.90
49319;DHT22;35818;44.498;0.166;2022-09-03T05:12:37;17.10;99.90
49319;DHT22;35818;44.498;0.166;2022-09-03T05:15:03;17.10;99.90
49319;DHT22;35818;44.498;0.166;2022-09-03T05:17:29;17.10;99.90
49319;DHT22;35818;44.498;0.166;2022-09-03T05:19:55;17.10;99.90
49319;DHT22;35818;44.498;0.166;2022-09-03T05:22:20;17.10;99.90
49319;DHT22;35818;44.498;0.166;2022-09-03T05:24:46;17.10;99.90
49319;DHT22;35818;44.498;0.166;2022-09-03T05:27:13;17.20;99.90
49319;DHT22;35818;44.498;0.166;2022-09-03T05:29:44;17.20;99.90
49319;DHT22;35818;44.498;0.166;2022-09-03T05:32:10;17.30;99.90
49319;DHT22;35818;44.498;0.166;2022-09-03T05:34:35;17.40;99.90
49319;DHT22;35818;44.498;0.166;2022-09-03T05:37:01;17.40;99.90
49319;DHT22;35818;44.498;0.166;2022-09-03T05:39:26;17.50;99.90
49319;DHT22;35818;44.498;0.166;2022-09-03T05:41:52;17.50;99.80
49319;DHT22;35818;44.498;0.166;2022-09-03T05:44:17;17.60;99.70
49319;DHT22;35818;44.498;0.166;2022-09-03T05:46:43;17.60;99.70
49319;DHT22;35818;44.498;0.166;2022-09-03T05:49:08;17.70;99.60
49319;DHT22;35818;44.498;0.166;2022-09-03T05:51:36;17.80;99.30
49319;DHT22;35818;44.498;0.166;2022-09-03T05:54:03;17.90;98.90
49319;DHT22;35818;44.498;0.166;2022-09-03T05:56:29;18.00;98.60
49319;DHT22;35818;44.498;0.166;2022-09-03T05:58:56;18.00;98.40
49319;DHT22;35818;44.498;0.166;2022-09-03T06:04:02;18.10;97.80
49319;DHT22;35818;44.498;0.166;2022-09-03T06:06:29;18.10;97.70
49319;DHT22;35818;44.498;0.166;2022-09-03T06:08:56;18.20;97.70
49319;DHT22;35818;44.498;0.166;2022-09-03T06:11:22;18.20;97.50
49319;DHT22;35818;44.498;0.166;2022-09-03T06:13:54;18.20;97.50
49319;DHT22;35818;44.498;0.166;2022-09-03T06:16:19;18.20;97.50
49319;DHT22;35818;44.498;0.166;2022-09-03T06:18:47;18.20;97.60
49319;DHT22;35818;44.498;0.166;2022-09-03T06:21:13;18.20;97.80
49319;DHT22;35818;44.498;0.166;2022-09-03T06:23:39;18.20;97.80
49319;DHT22;35818;44.498;0.166;2022-09-03T06:28:34;18.30;97.80
49319;DHT22;35818;44.498;0.166;2022-09-03T06:31:04;18.30;97.70
49319;DHT22;35818;44.498;0.166;2022-09-03T06:33:31;18.40;97.40
49319;DHT22;35818;44.498;0.166;2022-09-03T06:35:58;18.50;97.20
49319;DHT22;35818;44.498;0.166;2022-09-03T06:38:25;18.50;97.10
49319;DHT22;35818;44.498;0.166;2022-09-03T06:40:54;18.60;96.80
49319;DHT22;35818;44.498;0.166;2022-09-03T06:43:20;18.70;96.60
49319;DHT22;35818;44.498;0.166;2022-09-03T06:45:55;18.80;96.30
49319;DHT22;35818;44.498;0.166;2022-09-03T06:48:21;19.00;95.90
49319;DHT22;35818;44.498;0.166;2022-09-03T06:50:55;19.00;95.60
49319;DHT22;35818;44.498;0.166;2022-09-03T06:53:31;19.10;95.30
49319;DHT22;35818;44.498;0.166;2022-09-03T06:56:01;19.20;94.90
49319;DHT22;35818;44.498;0.166;2022-09-03T06:58:30;19.20;94.80
49319;DHT22;35818;44.498;0.166;2022-09-03T07:01:00;19.20;94.90
49319;DHT22;35818;44.498;0.166;2022-09-03T07:03:26;19.30;94.80
49319;DHT22;35818;44.498;0.166;2022-09-03T07:05:52;19.40;94.60
49319;DHT22;35818;44.498;0.166;2022-09-03T07:08:17;19.50;94.30
49319;DHT22;35818;44.498;0.166;2022-09-03T07:10:46;19.70;94.00
49319;DHT22;35818;44.498;0.166;2022-09-03T07:13:12;19.80;93.80
49319;DHT22;35818;44.498;0.166;2022-09-03T07:15:38;19.90;93.30
49319;DHT22;35818;44.498;0.166;2022-09-03T07:18:05;20.10;92.80
49319;DHT22;35818;44.498;0.166;2022-09-03T07:20:31;20.20;92.30
49319;DHT22;35818;44.498;0.166;2022-09-03T07:22:56;20.30;91.80
49319;DHT22;35818;44.498;0.166;2022-09-03T07:25:22;20.40;91.60
49319;DHT22;35818;44.498;0.166;2022-09-03T07:27:48;20.70;91.30
49319;DHT22;35818;44.498;0.166;2022-09-03T07:30:15;20.90;90.70
49319;DHT22;35818;44.498;0.166;2022-09-03T07:32:41;21.00;90.10
49319;DHT22;35818;44.498;0.166;2022-09-03T07:35:07;21.00;89.30
49319;DHT22;35818;44.498;0.166;2022-09-03T07:37:32;21.00;88.90
49319;DHT22;35818;44.498;0.166;2022-09-03T07:39:59;20.90;88.70
49319;DHT22;35818;44.498;0.166;2022-09-03T07:42:26;20.80;88.70
49319;DHT22;35818;44.498;0.166;2022-09-03T07:44:52;20.80;89.10
49319;DHT22;35818;44.498;0.166;2022-09-03T07:47:18;20.90;89.10
49319;DHT22;35818;44.498;0.166;2022-09-03T07:49:44;21.00;88.70
49319;DHT22;35818;44.498;0.166;2022-09-03T07:52:09;21.00;88.50
49319;DHT22;35818;44.498;0.166;2022-09-03T07:54:35;21.20;88.20
49319;DHT22;35818;44.498;0.166;2022-09-03T07:57:01;21.30;88.00
49319;DHT22;35818;44.498;0.166;2022-09-03T07:59:26;21.50;86.90
49319;DHT22;35818;44.498;0.166;2022-09-03T08:01:52;21.50;86.10
49319;DHT22;35818;44.498;0.166;2022-09-03T08:04:17;21.50;85.80
49319;DHT22;35818;44.498;0.166;2022-09-03T08:06:43;21.40;85.90
49319;DHT22;35818;44.498;0.166;2022-09-03T08:09:10;21.40;86.30
49319;DHT22;35818;44.498;0.166;2022-09-03T08:11:36;21.30;86.70
49319;DHT22;35818;44.498;0.166;2022-09-03T08:14:04;21.40;86.70
49319;DHT22;35818;44.498;0.166;2022-09-03T08:16:31;21.50;86.60
49319;DHT22;35818;44.498;0.166;2022-09-03T08:18:57;21.70;86.30
49319;DHT22;35818;44.498;0.166;2022-09-03T08:21:23;21.90;85.70
49319;DHT22;35818;44.498;0.166;2022-09-03T08:23:51;22.20;84.70
49319;DHT22;35818;44.498;0.166;2022-09-03T08:26:17;22.40;83.50
49319;DHT22;35818;44.498;0.166;2022-09-03T08:28:43;22.50;83.30
49319;DHT22;35818;44.498;0.166;2022-09-03T08:31:10;22.50;82.60
49319;DHT22;35818;44.498;0.166;2022-09-03T08:33:37;22.50;82.70
49319;DHT22;35818;44.498;0.166;2022-09-03T08:36:04;22.60;82.70
49319;DHT22;35818;44.498;0.166;2022-09-03T08:38:30;22.70;82.50
49319;DHT22;35818;44.498;0.166;2022-09-03T08:41:03;22.90;81.80
49319;DHT22;35818;44.498;0.166;2022-09-03T08:43:30;23.00;80.70
49319;DHT22;35818;44.498;0.166;2022-09-03T08:45:56;23.00;80.50
49319;DHT22;35818;44.498;0.166;2022-09-03T08:48:24;23.10;80.20
49319;DHT22;35818;44.498;0.166;2022-09-03T08:50:51;23.10;80.20
49319;DHT22;35818;44.498;0.166;2022-09-03T08:53:28;23.20;79.90
49319;DHT22;35818;44.498;0.166;2022-09-03T08:56:02;23.30;79.50
49319;DHT22;35818;44.498;0.166;2022-09-03T08:58:30;23.40;79.20
49319;DHT22;35818;44.498;0.166;2022-09-03T09:01:02;23.70;78.70
49319;DHT22;35818;44.498;0.166;2022-09-03T09:06:06;23.90;76.50
49319;DHT22;35818;44.498;0.166;2022-09-03T09:08:45;24.00;76.20
49319;DHT22;35818;44.498;0.166;2022-09-03T09:11:15;24.00;76.30
49319;DHT22;35818;44.498;0.166;2022-09-03T09:16:26;24.40;75.40
49319;DHT22;35818;44.498;0.166;2022-09-03T09:19:07;24.80;74.60
49319;DHT22;35818;44.498;0.166;2022-09-03T09:21:39;25.10;73.00
49319;DHT22;35818;44.498;0.166;2022-09-03T09:24:23;25.10;72.00
49319;DHT22;35818;44.498;0.166;2022-09-03T09:26:52;25.20;71.60
49319;DHT22;35818;44.498;0.166;2022-09-03T09:29:19;25.40;70.70
49319;DHT22;35818;44.498;0.166;2022-09-03T09:31:45;25.70;70.00
49319;DHT22;35818;44.498;0.166;2022-09-03T09:34:10;26.20;68.60
49319;DHT22;35818;44.498;0.166;2022-09-03T09:36:41;26.50;66.60
49319;DHT22;35818;44.498;0.166;2022-09-03T09:39:08;26.60;65.50
49319;DHT22;35818;44.498;0.166;2022-09-03T09:41:33;26.60;65.70
49319;DHT22;35818;44.498;0.166;2022-09-03T09:44:00;26.80;65.10
49319;DHT22;35818;44.498;0.166;2022-09-03T09:46:31;27.10;63.90
49319;DHT22;35818;44.498;0.166;2022-09-03T09:48:58;27.50;62.20
49319;DHT22;35818;44.498;0.166;2022-09-03T09:51:25;27.80;60.80
49319;DHT22;35818;44.498;0.166;2022-09-03T09:54:11;28.00;59.60
49319;DHT22;35818;44.498;0.166;2022-09-03T09:56:37;28.30;58.80
49319;DHT22;35818;44.498;0.166;2022-09-03T09:59:04;29.30;57.50
49319;DHT22;35818;44.498;0.166;2022-09-03T10:01:30;30.40;54.90
49319;DHT22;35818;44.498;0.166;2022-09-03T10:03:57;31.70;51.00
49319;DHT22;35818;44.498;0.166;2022-09-03T10:06:24;32.60;49.10
49319;DHT22;35818;44.498;0.166;2022-09-03T10:09:13;33.50;47.50
49319;DHT22;35818;44.498;0.166;2022-09-03T10:11:41;34.30;45.80
49319;DHT22;35818;44.498;0.166;2022-09-03T10:14:12;34.50;45.40
49319;DHT22;35818;44.498;0.166;2022-09-03T10:16:41;34.20;44.20
49319;DHT22;35818;44.498;0.166;2022-09-03T10:19:30;33.50;44.90
49319;DHT22;35818;44.498;0.166;2022-09-03T10:22:02;33.20;44.90
49319;DHT22;35818;44.498;0.166;2022-09-03T10:24:37;32.80;44.60
49319;DHT22;35818;44.498;0.166;2022-09-03T10:27:06;32.40;46.00
49319;DHT22;35818;44.498;0.166;2022-09-03T10:29:34;31.90;47.20
49319;DHT22;35818;44.498;0.166;2022-09-03T10:34:45;30.90;48.70
49319;DHT22;35818;44.498;0.166;2022-09-03T10:42:34;30.00;50.60
49319;DHT22;35818;44.498;0.166;2022-09-03T10:47:37;29.90;50.80
49319;DHT22;35818;44.498;0.166;2022-09-03T10:50:14;29.80;50.90
49319;DHT22;35818;44.498;0.166;2022-09-03T10:52:47;29.50;51.60
49319;DHT22;35818;44.498;0.166;2022-09-03T10:55:20;29.30;52.10
49319;DHT22;35818;44.498;0.166;2022-09-03T10:57:50;29.20;52.20
49319;DHT22;35818;44.498;0.166;2022-09-03T11:00:18;29.10;52.60
49319;DHT22;35818;44.498;0.166;2022-09-03T11:05:14;30.30;51.10
49319;DHT22;35818;44.498;0.166;2022-09-03T11:07:45;31.70;49.10
49319;DHT22;35818;44.498;0.166;2022-09-03T11:10:20;32.90;46.40
49319;DHT22;35818;44.498;0.166;2022-09-03T11:12:48;33.60;44.80
49319;DHT22;35818;44.498;0.166;2022-09-03T11:15:17;33.90;43.60
49319;DHT22;35818;44.498;0.166;2022-09-03T11:17:49;33.60;43.50
49319;DHT22;35818;44.498;0.166;2022-09-03T11:20:20;34.00;43.60
49319;DHT22;35818;44.498;0.166;2022-09-03T11:22:50;35.50;41.50
49319;DHT22;35818;44.498;0.166;2022-09-03T11:25:18;36.80;39.90
49319;DHT22;35818;44.498;0.166;2022-09-03T11:30:24;38.90;37.10
49319;DHT22;35818;44.498;0.166;2022-09-03T11:32:57;40.10;36.10
49319;DHT22;35818;44.498;0.166;2022-09-03T11:38:02;41.10;33.20
49319;DHT22;35818;44.498;0.166;2022-09-03T11:40:31;41.60;32.40
49319;DHT22;35818;44.498;0.166;2022-09-03T11:43:04;41.80;31.70
49319;DHT22;35818;44.498;0.166;2022-09-03T11:47:55;42.30;32.10
49319;DHT22;35818;44.498;0.166;2022-09-03T11:50:22;43.10;31.80
49319;DHT22;35818;44.498;0.166;2022-09-03T11:52:52;43.50;30.70
49319;DHT22;35818;44.498;0.166;2022-09-03T11:55:30;43.70;30.70
49319;DHT22;35818;44.498;0.166;2022-09-03T11:57:57;43.80;30.20
49319;DHT22;35818;44.498;0.166;2022-09-03T12:00:23;43.90;30.30
49319;DHT22;35818;44.498;0.166;2022-09-03T12:02:51;44.40;30.00
49319;DHT22;35818;44.498;0.166;2022-09-03T12:05:41;45.00;29.80
49319;DHT22;35818;44.498;0.166;2022-09-03T12:10:45;45.10;29.10
49319;DHT22;35818;44.498;0.166;2022-09-03T12:18:12;46.00;28.90
49319;DHT22;35818;44.498;0.166;2022-09-03T12:20:47;46.50;28.60
49319;DHT22;35818;44.498;0.166;2022-09-03T12:23:29;46.00;28.50
49319;DHT22;35818;44.498;0.166;2022-09-03T12:25:55;44.60;28.90
49319;DHT22;35818;44.498;0.166;2022-09-03T12:28:29;43.00;29.70
49319;DHT22;35818;44.498;0.166;2022-09-03T12:31:04;41.40;30.80
49319;DHT22;35818;44.498;0.166;2022-09-03T12:33:30;41.10;31.40
49319;DHT22;35818;44.498;0.166;2022-09-03T12:36:00;41.60;31.10
49319;DHT22;35818;44.498;0.166;2022-09-03T12:38:27;42.30;30.70
49319;DHT22;35818;44.498;0.166;2022-09-03T12:40:54;43.20;30.20
49319;DHT22;35818;44.498;0.166;2022-09-03T12:43:19;43.60;29.50
49319;DHT22;35818;44.498;0.166;2022-09-03T12:45:50;43.40;29.70
49319;DHT22;35818;44.498;0.166;2022-09-03T12:48:17;42.70;29.80
49319;DHT22;35818;44.498;0.166;2022-09-03T12:50:47;43.20;29.90
49319;DHT22;35818;44.498;0.166;2022-09-03T12:53:17;44.10;29.50
49319;DHT22;35818;44.498;0.166;2022-09-03T12:55:49;44.90;29.10
49319;DHT22;35818;44.498;0.166;2022-09-03T12:58:24;45.30;28.40
49319;DHT22;35818;44.498;0.166;2022-09-03T13:03:20;41.80;29.40
49319;DHT22;35818;44.498;0.166;2022-09-03T13:05:50;39.80;30.80
49319;DHT22;35818;44.498;0.166;2022-09-03T13:08:19;38.30;32.80
49319;DHT22;35818;44.498;0.166;2022-09-03T13:10:48;37.20;34.20
49319;DHT22;35818;44.498;0.166;2022-09-03T13:13:21;36.50;34.90
49319;DHT22;35818;44.498;0.166;2022-09-03T13:18:41;35.40;35.80
49319;DHT22;35818;44.498;0.166;2022-09-03T13:26:12;33.80;37.00
49319;DHT22;35818;44.498;0.166;2022-09-03T13:31:23;33.00;37.90
49319;DHT22;35818;44.498;0.166;2022-09-03T13:39:18;32.80;39.40
49319;DHT22;35818;44.498;0.166;2022-09-03T13:44:13;33.30;38.90
49319;DHT22;35818;44.498;0.166;2022-09-03T13:52:11;38.50;34.20
49319;DHT22;35818;44.498;0.166;2022-09-03T13:54:40;40.50;32.30
49319;DHT22;35818;44.498;0.166;2022-09-03T14:00:03;43.40;29.70
49319;DHT22;35818;44.498;0.166;2022-09-03T14:02:45;44.60;29.00
49319;DHT22;35818;44.498;0.166;2022-09-03T14:07:56;44.40;28.50
49319;DHT22;35818;44.498;0.166;2022-09-03T14:10:29;44.60;28.60
49319;DHT22;35818;44.498;0.166;2022-09-03T14:13:02;44.80;28.40
49319;DHT22;35818;44.498;0.166;2022-09-03T14:15:32;45.10;28.40
49319;DHT22;35818;44.498;0.166;2022-09-03T14:20:40;45.30;27.90
49319;DHT22;35818;44.498;0.166;2022-09-03T14:23:28;44.80;28.10
49319;DHT22;35818;44.498;0.166;2022-09-03T14:25:58;44.80;28.10
49319;DHT22;35818;44.498;0.166;2022-09-03T14:28:29;44.70;27.90
49319;DHT22;35818;44.498;0.166;2022-09-03T14:33:30;44.50;28.20
49319;DHT22;35818;44.498;0.166;2022-09-03T14:38:31;45.20;28.00
49319;DHT22;35818;44.498;0.166;2022-09-03T14:41:09;45.80;27.80
49319;DHT22;35818;44.498;0.166;2022-09-03T14:49:16;47.00;26.80
49319;DHT22;35818;44.498;0.166;2022-09-03T15:05:18;36.20;33.90
49319;DHT22;35818;44.498;0.166;2022-09-03T15:08:01;37.20;33.50
49319;DHT22;35818;44.498;0.166;2022-09-03T15:33:22;40.90;30.20
49319;DHT22;35818;44.498;0.166;2022-09-03T15:40:53;40.60;30.10
49319;DHT22;35818;44.498;0.166;2022-09-03T15:43:22;40.00;30.60
49319;DHT22;35818;44.498;0.166;2022-09-03T15:56:03;39.40;31.70
49319;DHT22;35818;44.498;0.166;2022-09-03T15:58:40;40.40;30.90
49319;DHT22;35818;44.498;0.166;2022-09-03T16:01:10;41.20;30.40
49319;DHT22;35818;44.498;0.166;2022-09-03T16:06:17;41.80;29.80
49319;DHT22;35818;44.498;0.166;2022-09-03T16:08:48;41.70;29.70
49319;DHT22;35818;44.498;0.166;2022-09-03T16:11:20;41.60;29.60
49319;DHT22;35818;44.498;0.166;2022-09-03T16:14:01;41.40;29.50
49319;DHT22;35818;44.498;0.166;2022-09-03T16:19:08;41.00;29.90
49319;DHT22;35818;44.498;0.166;2022-09-03T16:21:45;40.80;30.00
49319;DHT22;35818;44.498;0.166;2022-09-03T16:24:16;40.60;30.20
49319;DHT22;35818;44.498;0.166;2022-09-03T16:29:11;40.40;30.20
49319;DHT22;35818;44.498;0.166;2022-09-03T16:31:42;40.30;30.30
49319;DHT22;35818;44.498;0.166;2022-09-03T16:39:22;39.10;31.30
49319;DHT22;35818;44.498;0.166;2022-09-03T16:42:05;39.00;31.30
49319;DHT22;35818;44.498;0.166;2022-09-03T16:49:56;37.20;32.80
49319;DHT22;35818;44.498;0.166;2022-09-03T16:57:37;37.60;32.70
49319;DHT22;35818;44.498;0.166;2022-09-03T17:00:16;37.50;32.80
49319;DHT22;35818;44.498;0.166;2022-09-03T17:02:54;37.50;32.90
49319;DHT22;35818;44.498;0.166;2022-09-03T17:10:35;37.20;33.40
49319;DHT22;35818;44.498;0.166;2022-09-03T17:18:28;36.60;34.10
49319;DHT22;35818;44.498;0.166;2022-09-03T17:28:31;35.50;35.70
49319;DHT22;35818;44.498;0.166;2022-09-03T17:33:45;34.50;36.70
49319;DHT22;35818;44.498;0.166;2022-09-03T17:36:14;33.90;37.30
49319;DHT22;35818;44.498;0.166;2022-09-03T17:41:21;33.10;38.80
49319;DHT22;35818;44.498;0.166;2022-09-03T17:44:00;32.70;39.20
49319;DHT22;35818;44.498;0.166;2022-09-03T17:46:30;32.00;40.20
49319;DHT22;35818;44.498;0.166;2022-09-03T17:48:59;31.10;41.10
49319;DHT22;35818;44.498;0.166;2022-09-03T17:51:38;30.40;42.10
49319;DHT22;35818;44.498;0.166;2022-09-03T17:56:55;29.40;43.80
49319;DHT22;35818;44.498;0.166;2022-09-03T18:02:16;28.90;45.10
49319;DHT22;35818;44.498;0.166;2022-09-03T18:07:22;29.00;44.70
49319;DHT22;35818;44.498;0.166;2022-09-03T18:15:06;28.50;45.50
49319;DHT22;35818;44.498;0.166;2022-09-03T18:17:36;28.20;45.80
49319;DHT22;35818;44.498;0.166;2022-09-03T18:23:06;27.80;48.10
49319;DHT22;35818;44.498;0.166;2022-09-03T18:25:54;27.60;50.10
49319;DHT22;35818;44.498;0.166;2022-09-03T18:28:41;27.30;50.90
49319;DHT22;35818;44.498;0.166;2022-09-03T18:31:27;27.10;51.00
49319;DHT22;35818;44.498;0.166;2022-09-03T18:34:11;26.90;51.00
49319;DHT22;35818;44.498;0.166;2022-09-03T18:36:56;26.80;50.90
49319;DHT22;35818;44.498;0.166;2022-09-03T18:39:40;26.60;50.90
49319;DHT22;35818;44.498;0.166;2022-09-03T18:45:38;26.30;51.40
49319;DHT22;35818;44.498;0.166;2022-09-03T18:56:50;25.80;52.60
49319;DHT22;35818;44.498;0.166;2022-09-03T19:05:26;25.50;53.80
49319;DHT22;35818;44.498;0.166;2022-09-03T19:13:49;25.30;54.50
49319;DHT22;35818;44.498;0.166;2022-09-03T19:22:34;25.10;55.20
49319;DHT22;35818;44.498;0.166;2022-09-03T19:25:19;25.00;55.40
49319;DHT22;35818;44.498;0.166;2022-09-03T19:33:35;24.80;56.10
49319;DHT22;35818;44.498;0.166;2022-09-03T19:48:32;24.20;58.60
49319;DHT22;35818;44.498;0.166;2022-09-03T19:54:23;24.10;59.00
49319;DHT22;35818;44.498;0.166;2022-09-03T19:57:08;24.10;59.00
49319;DHT22;35818;44.498;0.166;2022-09-03T19:59:54;24.00;58.90
49319;DHT22;35818;44.498;0.166;2022-09-03T20:02:40;24.00;59.00
49319;DHT22;35818;44.498;0.166;2022-09-03T20:05:24;23.90;59.10
49319;DHT22;35818;44.498;0.166;2022-09-03T20:08:09;23.90;59.20
49319;DHT22;35818;44.498;0.166;2022-09-03T20:10:56;23.90;59.20
49319;DHT22;35818;44.498;0.166;2022-09-03T20:13:23;23.80;59.50
49319;DHT22;35818;44.498;0.166;2022-09-03T20:16:01;23.80;59.70
49319;DHT22;35818;44.498;0.166;2022-09-03T20:23:36;23.70;59.60
49319;DHT22;35818;44.498;0.166;2022-09-03T20:26:26;23.60;59.80
49319;DHT22;35818;44.498;0.166;2022-09-03T20:29:00;23.60;59.70
49319;DHT22;35818;44.498;0.166;2022-09-03T20:50:02;23.20;61.30
49319;DHT22;35818;44.498;0.166;2022-09-03T20:52:45;23.10;61.50
49319;DHT22;35818;44.498;0.166;2022-09-03T20:58:00;23.00;61.70
49319;DHT22;35818;44.498;0.166;2022-09-03T21:00:29;23.00;61.70
49319;DHT22;35818;44.498;0.166;2022-09-03T21:08:34;22.90;61.60
49319;DHT22;35818;44.498;0.166;2022-09-03T21:10:55;22.80;61.50